Togus, Maine
Current Conditions -  °F | °C
As of 6:53 AM on Sunday 23 Nov 2014 (Local Time) from KAUG Reporting Station
Few Clouds Few Clouds  
Wind Chill: 36°   Ceiling: Unl
Heat Index: 36°   Visibility: 10mi
Dew Point: 25°   Wind: 0mph
Humidity: 64%   Direction: NA
Pressure: 30"   Gusts: NA
Location:  44.3261°N, 69.698°W
Report Text: KAUG 231153Z AUTO 00000KT 10SM FEW110 02/M04 A3000 RMK AO2 SLP163 T00221039 10022 20011 53017
Loading
Personal Weather Stations






























Interactive Weather Map New forecast layout! Learn more

10-Day Weather Forecast

Advertisements
Track Severe Weather on mobile